Albatros — C6CN4 — position and weather

sailwx.info

Track history (hours):
 
Tides and Currents Weather Stations Pressure Air Temp Water Temp Dewpoint Dewpoint Depression Visibility Wind Speed Wind Dir Waves Ship Positions

Albatros

Last reported at 2018-Sep-19 02:59 UTC. Time now 2018-Sep-19 03:01 UTC.
Position N 60°12' E 005°11'.

Length 205.5 m; beam 25.2 m; draft 7.6 m.

Type: Passenger vessel. MMSI: 308784000.

Date/timePositionNaut miles runAvg speedWind from/ knotsBaromVisibWave heightAir tempDewpointWater temp
2018-Sep-19 02:59N 60°12' E 005°11'5 9.6
2018-Sep-19 02:30N 60°09' E 005°04'4 8.9
2018-Sep-19 02:03N 60°08' E 004°56'111.6
2018-Sep-19 01:59N 60°07' E 004°56'611.4
2018-Sep-19 01:29N 60°02' E 004°49'511.5
2018-Sep-19 01:02N 59°58' E 004°43'012.0
2018-Sep-19 01:00N 59°58' E 004°43'612.8
2018-Sep-19 00:30N 59°53' E 004°35'511.2
2018-Sep-19 00:03N 59°48' E 004°36'110.2
2018-Sep-19 00:00N 59°47' E 004°37'510.1
2018-Sep-18 23:30N 59°42' E 004°38'510.8
2018-Sep-18 23:03N 59°38' E 004°42'111.9
2018-Sep-18 23:00N 59°37' E 004°43'612.0
2018-Sep-18 22:30N 59°34' E 004°53'512.5
2018-Sep-18 22:03N 59°31' E 005°01'112.2
2018-Sep-18 22:00N 59°30' E 005°03'612.0
2018-Sep-18 21:30N 59°26' E 005°12'3 5.8
2018-Sep-18 21:03N 59°25' E 005°16'0 0.2
2018-Sep-18 21:00N 59°25' E 005°16'0 0.0
2018-Sep-18 20:30N 59°25' E 005°16'0 0.0
2018-Sep-18 20:03N 59°25' E 005°16'0 0.0
2018-Sep-18 20:00N 59°25' E 005°16'0 0.0
2018-Sep-18 19:30N 59°25' E 005°16'0 0.0
2018-Sep-18 19:03N 59°25' E 005°16'0 0.0
2018-Sep-18 19:00N 59°25' E 005°16'0 0.0
2018-Sep-18 18:30N 59°25' E 005°16'0 0.0
2018-Sep-18 18:03N 59°25' E 005°16'0 0.0
2018-Sep-18 18:00N 59°25' E 005°16'0 0.0
2018-Sep-18 17:30N 59°25' E 005°16'0 0.0
2018-Sep-18 17:03N 59°25' E 005°16'0 0.0
2018-Sep-18 17:00N 59°25' E 005°16'0 0.0
2018-Sep-18 16:30N 59°25' E 005°16'0 0.0
2018-Sep-18 16:03N 59°25' E 005°16'0 0.0
2018-Sep-18 16:00N 59°25' E 005°16'0 0.0
2018-Sep-18 15:30N 59°25' E 005°16'0 0.0
2018-Sep-18 15:03N 59°25' E 005°16'0 0.0
2018-Sep-18 15:00N 59°25' E 005°16'0 0.0
2018-Sep-18 14:03N 59°25' E 005°16'0 0.0
2018-Sep-18 14:00N 59°25' E 005°16'0 0.0
2018-Sep-18 13:30N 59°25' E 005°16'0 0.2
2018-Sep-18 13:03N 59°25' E 005°15'0 0.3
2018-Sep-18 12:59N 59°25' E 005°15'2 4.7
2018-Sep-18 12:30N 59°23' E 005°18'511.0
2018-Sep-18 12:03N 59°18' E 005°20'115.0
2018-Sep-18 12:00N 59°17' E 005°20'816.3
2018-Sep-18 11:30N 59°09' E 005°21'818.1
2018-Sep-18 11:03N 59°04' E 005°34'119.8
2018-Sep-18 11:01N 59°03' E 005°35'713.1
2018-Sep-18 10:30N 58°58' E 005°44'0 0.2
2018-Sep-18 10:03N 58°58' E 005°44'0 0.0
2018-Sep-18 10:00N 58°58' E 005°44'0 0.0
2018-Sep-18 09:27N 58°58' E 005°44'0 0.0
2018-Sep-18 09:03N 58°58' E 005°44'0 0.0
2018-Sep-18 09:00N 58°58' E 005°44'0 0.0
2018-Sep-18 08:30N 58°58' E 005°44'0 0.0
2018-Sep-18 08:03N 58°58' E 005°44'0 0.0
2018-Sep-18 08:00N 58°58' E 005°44'0 0.0
2018-Sep-18 07:30N 58°58' E 005°44'0 0.0
2018-Sep-18 07:03N 58°58' E 005°44'0 0.1
2018-Sep-18 07:00N 58°58' E 005°44'0 0.0
2018-Sep-18 06:30N 58°58' E 005°44'0 0.0
2018-Sep-18 06:03N 58°58' E 005°44'0 0.0
2018-Sep-18 06:00N 58°58' E 005°44'0 0.0
2018-Sep-18 05:30N 58°58' E 005°44'0 0.0
2018-Sep-18 05:03N 58°58' E 005°44'0 0.1
2018-Sep-18 05:00N 58°58' E 005°44'1 2.5
2018-Sep-18 04:30N 58°59' E 005°42'512.1
2018-Sep-18 04:04N 59°03' E 005°34'111.5
2018-Sep-18 04:00N 59°03' E 005°33'816.1
2018-Sep-18 03:30N 58°55' E 005°32'511.7
2018-Sep-18 03:03N 58°50' E 005°28'110.2
2018-Sep-18 03:00N 58°50' E 005°26'4 7.3
2018-Sep-18 02:30N 58°49' E 005°20'3 7.6
2018-Sep-18 02:03N 58°45' E 005°19'0 9.6
2018-Sep-18 02:00N 58°45' E 005°19'5 9.7
2018-Sep-18 01:30N 58°40' E 005°23'510.7
2018-Sep-18 01:03N 58°36' E 005°26'110.7
2018-Sep-18 01:00N 58°35' E 005°26'510.8
2018-Sep-18 00:30N 58°30' E 005°31'510.9
2018-Sep-18 00:03N 58°27' E 005°38'110.9
2018-Sep-18 00:00N 58°27' E 005°39'510.7
2018-Sep-17 23:30N 58°23' E 005°46'511.1
2018-Sep-17 23:03N 58°20' E 005°53'111.8
2018-Sep-17 23:00N 58°19' E 005°54'510.6
2018-Sep-17 22:30N 58°16' E 006°01'510.6
2018-Sep-17 22:03N 58°12' E 006°08'010.7
2018-Sep-17 22:00N 58°12' E 006°09'610.8
2018-Sep-17 21:29N 58°08' E 006°16'511.5
2018-Sep-17 21:03N 58°05' E 006°23'111.5
2018-Sep-17 21:00N 58°04' E 006°24'611.2
2018-Sep-17 20:30N 58°01' E 006°32'510.9
2018-Sep-17 20:03N 57°60' E 006°41'111.2
2018-Sep-17 20:00N 57°60' E 006°42'611.0
2018-Sep-17 19:30N 58°00' E 006°53'510.3
2018-Sep-17 19:02N 58°04' E 006°59'010.9
2018-Sep-17 19:00N 58°04' E 006°60'3 4.4
2018-Sep-17 18:26N 58°06' E 007°02'0 0.0
2018-Sep-17 18:02N 58°06' E 007°02'0 0.0
2018-Sep-17 17:59N 58°06' E 007°02'0 0.0
2018-Sep-17 17:29N 58°06' E 007°02'0 0.0
2018-Sep-17 16:59N 58°06' E 007°02'0 0.0
2018-Sep-17 16:29N 58°06' E 007°02'0 0.0
2018-Sep-17 16:02N 58°06' E 007°02'0 0.0
2018-Sep-17 15:47N 58°06' E 007°02'0 0.1
2018-Sep-17 15:29N 58°06' E 007°02'0 0.0
2018-Sep-17 15:02N 58°06' E 007°02'0 0.1
2018-Sep-17 14:56N 58°06' E 007°02'0 0.1
2018-Sep-17 14:26N 58°06' E 007°02'0 0.1
2018-Sep-17 13:59N 58°06' E 007°02'0 0.1
2018-Sep-17 13:29N 58°06' E 007°02'0 0.1
2018-Sep-17 13:02N 58°06' E 007°02'0 0.1
2018-Sep-17 12:56N 58°06' E 007°02'0 0.1
2018-Sep-17 12:29N 58°06' E 007°02'0 0.0
2018-Sep-17 12:02N 58°06' E 007°02'0 0.2
2018-Sep-17 11:59N 58°06' E 007°02'0 0.2
2018-Sep-17 11:30N 58°06' E 007°02'3 6.8
2018-Sep-17 11:03N 58°04' E 006°59'114.1
2018-Sep-17 11:00N 58°03' E 006°58'510.2
2018-Sep-17 10:30N 58°01' E 006°50'716.3
2018-Sep-17 10:03N 57°53' E 006°50'117.9
2018-Sep-17 10:00N 57°53' E 006°50'918.2
2018-Sep-17 09:30N 57°43' E 006°49'715.6
2018-Sep-17 09:02N 57°37' E 006°42'115.1
2018-Sep-17 09:00N 57°37' E 006°41'714.1
2018-Sep-17 08:30N 57°31' E 006°34'818.4
2018-Sep-17 08:03N 57°23' E 006°33'118.3
2018-Sep-17 08:00N 57°22' E 006°33'918.2
2018-Sep-17 07:29N 57°13' E 006°34'818.5
2018-Sep-17 07:03N 57°05' E 006°37'118.7
2018-Sep-17 07:00N 57°04' E 006°38'816.3
2018-Sep-17 06:30N 56°56' E 006°40'716.3
2018-Sep-17 06:02N 56°48' E 006°40'216.3
2018-Sep-17 05:56N 56°47' E 006°40'716.2
2018-Sep-17 05:29N 56°39' E 006°39'916.1
2018-Sep-17 04:55N 56°30' E 006°37'15014.9
2018-Sep-16 18:50N 54°07' E 007°54'618.6
2018-Sep-16 18:30N 54°01' E 007°53'1016.0
2018-Sep-16 17:55N 53°52' E 007°57'718.2
2018-Sep-16 17:31N 53°48' E 008°08'919.0
2018-Sep-16 17:03N 53°42' E 008°19'118.7
2018-Sep-16 16:59N 53°42' E 008°21'817.3
2018-Sep-16 16:30N 53°36' E 008°31'3 5.8
2018-Sep-16 16:03N 53°34' E 008°33'0 0.0
2018-Sep-16 15:57N 53°34' E 008°33'0 0.0
2018-Sep-16 15:27N 53°34' E 008°33'0 0.0
2018-Sep-16 15:03N 53°34' E 008°33'0 0.0
2018-Sep-16 14:57N 53°34' E 008°33'0 0.0
2018-Sep-16 14:27N 53°34' E 008°33'0 0.0
2018-Sep-16 13:27N 53°34' E 008°33'0 0.0
2018-Sep-16 13:03N 53°34' E 008°33'0 0.0
2018-Sep-16 12:57N 53°34' E 008°33'0 0.0
2018-Sep-16 12:27N 53°34' E 008°33'0 0.0
2018-Sep-16 12:03N 53°34' E 008°33'0 0.0
2018-Sep-16 11:57N 53°34' E 008°33'0 0.0
2018-Sep-16 11:27N 53°34' E 008°33'0 0.0
2018-Sep-16 11:03N 53°34' E 008°33'0 0.0
2018-Sep-16 10:57N 53°34' E 008°33'0 0.0
2018-Sep-16 10:27N 53°34' E 008°33'0 0.0
2018-Sep-16 10:03N 53°34' E 008°33'0 0.0
2018-Sep-16 09:57N 53°34' E 008°33'0 0.0
2018-Sep-16 09:27N 53°34' E 008°33'0 0.0
2018-Sep-16 09:03N 53°34' E 008°33'0 0.0
2018-Sep-16 08:57N 53°34' E 008°33'0 0.0
2018-Sep-16 08:27N 53°34' E 008°33'0 0.0
2018-Sep-16 08:03N 53°34' E 008°33'0 0.0
2018-Sep-16 07:57N 53°34' E 008°33'0 0.0
2018-Sep-16 07:27N 53°34' E 008°33'0 0.0
2018-Sep-16 07:03N 53°34' E 008°33'0 0.0
2018-Sep-16 06:57N 53°34' E 008°33'0 0.0
2018-Sep-16 06:27N 53°34' E 008°33'0 0.0
2018-Sep-16 06:03N 53°34' E 008°33'0 0.0
2018-Sep-16 05:57N 53°34' E 008°33'0 0.6
2018-Sep-16 05:31N 53°33' E 008°33'4 8.4
2018-Sep-16 05:03N 53°37' E 008°30'112.0
2018-Sep-16 05:00N 53°37' E 008°29'815.9
2018-Sep-16 04:30N 53°42' E 008°19'716.3
2018-Sep-16 04:03N 53°47' E 008°09'116.4
2018-Sep-16 04:00N 53°48' E 008°09'816.1
2018-Sep-16 03:30N 53°51' E 007°57'614.4
2018-Sep-16 03:03N 53°58' E 007°56'116.1
2018-Sep-16 03:00N 53°59' E 007°56'1015.6
2018-Sep-16 02:22N 54°01' E 008°13'413.4
2018-Sep-16 02:03N 54°00' E 008°20'115.1
2018-Sep-16 02:00N 54°00' E 008°21'713.1
2018-Sep-16 01:30N 53°58' E 008°32'511.9
2018-Sep-16 01:04N 53°56' E 008°40'1 9.9
2018-Sep-16 01:00N 53°55' E 008°40'611.5
2018-Sep-16 00:30N 53°51' E 008°46'614.1
2018-Sep-16 00:03N 53°51' E 008°57'115.4
2018-Sep-16 00:00N 53°51' E 008°58'713.3
2018-Sep-15 23:31N 53°54' E 009°08'0 0.3
2018-Sep-15 23:03N 53°54' E 009°09'0 2.5
2018-Sep-15 23:00N 53°54' E 009°09'3 5.8
2018-Sep-15 22:30N 53°56' E 009°12'4 8.3
2018-Sep-15 22:03N 53°59' E 009°16'0 8.4
2018-Sep-15 22:00N 53°59' E 009°17'4 8.4
2018-Sep-15 21:30N 54°03' E 009°18'4 8.5
2018-Sep-15 21:03N 54°07' E 009°20'0 8.4
2018-Sep-15 21:00N 54°07' E 009°20'2 4.2
2018-Sep-15 20:30N 54°09' E 009°22'2 4.3
2018-Sep-15 20:03N 54°10' E 009°25'0 8.4
2018-Sep-15 20:00N 54°10' E 009°25'4 8.4
2018-Sep-15 19:30N 54°12' E 009°32'2 4.5
2018-Sep-15 19:03N 54°13' E 009°35'0 7.9
2018-Sep-15 19:00N 54°13' E 009°35'4 7.1
2018-Sep-15 18:30N 54°16' E 009°38'3 7.8
2018-Sep-15 18:03N 54°18' E 009°43'0 6.9
2018-Sep-15 18:00N 54°19' E 009°43'4 8.1
2018-Sep-15 17:30N 54°22' E 009°47'5 8.0
2018-Sep-15 16:55N 54°21' E 009°55'3 7.3
2018-Sep-15 16:29N 54°21' E 010°00'8 1.7
2018-Sep-15 12:00N 54°29' E 009°55'2 0.3
2018-Sep-15 04:55N 54°28' E 009°52'1714.6
2018-Sep-15 03:46N 54°35' E 010°19'415.8
2018-Sep-15 03:29N 54°35' E 010°27'715.5
2018-Sep-15 03:04N 54°35' E 010°38'115.2
2018-Sep-15 03:01N 54°35' E 010°39'815.5
2018-Sep-15 02:31N 54°36' E 010°53'715.4
2018-Sep-15 02:04N 54°36' E 011°05'115.5
2018-Sep-15 02:01N 54°36' E 011°06'815.2
2018-Sep-15 01:30N 54°34' E 011°19'715.8
2018-Sep-15 01:04N 54°31' E 011°30'115.6
2018-Sep-15 01:01N 54°31' E 011°31'815.7
2018-Sep-15 00:30N 54°28' E 011°43'6915.1
2018-Sep-14 19:57N 54°46' E 013°37'817.0
2018-Sep-14 19:30N 54°45' E 013°50'817.0
2018-Sep-14 19:03N 54°42' E 014°03'117.3
2018-Sep-14 19:00N 54°42' E 014°04'917.5
2018-Sep-14 18:29N 54°39' E 014°19'128 6.2
2018-Sep-13 21:48N 54°57' E 017°59'414.2
2018-Sep-13 21:31N 54°57' E 018°06'614.2
2018-Sep-13 21:04N 54°58' E 018°17'114.1
2018-Sep-13 21:01N 54°58' E 018°19'714.4
2018-Sep-13 20:31N 54°59' E 018°31'714.4
2018-Sep-13 20:03N 54°56' E 018°41'114.9
2018-Sep-13 20:01N 54°55' E 018°42'815.1
2018-Sep-13 19:31N 54°50' E 018°52'714.6
2018-Sep-13 19:04N 54°45' E 018°60'114.6
2018-Sep-13 19:01N 54°45' E 019°00'714.7
2018-Sep-13 18:31N 54°38' E 018°56'614.2
2018-Sep-13 18:04N 54°32' E 018°49'114.1
2018-Sep-13 18:01N 54°32' E 018°49'713.9
2018-Sep-13 17:31N 54°27' E 018°40'3 5.7
2018-Sep-13 17:03N 54°24' E 018°40'0 3.6
2018-Sep-13 17:01N 54°24' E 018°41'1 3.0
2018-Sep-13 16:31N 54°23' E 018°39'1 3.3
2018-Sep-13 16:03N 54°24' E 018°40'0 0.8
2018-Sep-13 16:00N 54°24' E 018°40'0 0.0
2018-Sep-13 15:27N 54°24' E 018°40'0 0.0
2018-Sep-13 15:03N 54°24' E 018°40'0 0.0
2018-Sep-13 15:00N 54°24' E 018°40'0 0.0
2018-Sep-13 14:03N 54°24' E 018°40'0 0.0
2018-Sep-13 14:00N 54°24' E 018°40'0 0.0
2018-Sep-13 13:30N 54°24' E 018°40'0 0.0
2018-Sep-13 13:03N 54°24' E 018°40'0 0.0
2018-Sep-13 13:00N 54°24' E 018°40'0 0.0
2018-Sep-13 12:30N 54°24' E 018°40'0 0.0
2018-Sep-13 12:03N 54°24' E 018°40'0 0.0
2018-Sep-13 12:00N 54°24' E 018°40'0 0.0
2018-Sep-13 11:27N 54°24' E 018°40'0 0.0
2018-Sep-13 11:03N 54°24' E 018°40'0 0.0
2018-Sep-13 11:00N 54°24' E 018°40'0 0.0
2018-Sep-13 10:30N 54°24' E 018°40'0 0.0
2018-Sep-13 10:03N 54°24' E 018°40'0 0.0
2018-Sep-13 10:00N 54°24' E 018°40'0 0.0
2018-Sep-13 09:30N 54°24' E 018°40'0 0.0
2018-Sep-13 09:03N 54°24' E 018°40'0 0.0
2018-Sep-13 09:00N 54°24' E 018°40'0 0.0
2018-Sep-13 08:30N 54°24' E 018°40'0 0.0
2018-Sep-13 08:03N 54°24' E 018°40'0 0.0
2018-Sep-13 07:57N 54°24' E 018°40'0 0.0
2018-Sep-13 07:30N 54°24' E 018°40'0 0.0
2018-Sep-13 07:03N 54°24' E 018°40'0 0.0
2018-Sep-13 07:00N 54°24' E 018°40'0 0.0
2018-Sep-13 06:30N 54°24' E 018°40'0 0.0
2018-Sep-13 06:03N 54°24' E 018°40'0 0.0
2018-Sep-13 06:00N 54°24' E 018°40'0 0.4
2018-Sep-13 05:30N 54°24' E 018°40'3 7.0
2018-Sep-13 05:03N 54°27' E 018°41'111.1
2018-Sep-13 05:00N 54°28' E 018°42'510.8
2018-Sep-13 04:30N 54°32' E 018°47'510.5
2018-Sep-13 04:03N 54°36' E 018°53'0 9.8
2018-Sep-13 04:00N 54°36' E 018°53'5 9.5
2018-Sep-13 03:30N 54°40' E 018°57'410.0
2018-Sep-13 03:03N 54°44' E 019°00'0 9.4
2018-Sep-13 03:00N 54°45' E 019°01'5 9.6
2018-Sep-13 02:30N 54°49' E 019°05'4 8.9
2018-Sep-13 02:03N 54°52' E 019°08'0 9.1
2018-Sep-13 02:00N 54°53' E 019°09'510.2
2018-Sep-13 01:30N 54°57' E 019°13'510.2
2018-Sep-13 01:03N 55°01' E 019°17'110.1
2018-Sep-13 01:00N 55°02' E 019°17'296 8.8
2018-Sep-11 15:11N 59°33' E 022°56'317.0
2018-Sep-11 15:01N 59°34' E 023°02'1816.3
2018-Sep-11 13:53N 59°31' E 023°37'2217.4
2018-Sep-11 12:36N 59°30' E 024°22'217.3
2018-Sep-11 12:30N 59°30' E 024°25'715.1
2018-Sep-11 12:03N 59°31' E 024°38'112.8
2018-Sep-11 12:01N 59°31' E 024°39'510.8
2018-Sep-11 11:30N 59°27' E 024°46'0 0.3
2018-Sep-11 11:02N 59°27' E 024°46'0 0.0
2018-Sep-11 10:59N 59°27' E 024°46'0 0.0
2018-Sep-11 10:30N 59°27' E 024°46'0 0.0
2018-Sep-11 10:02N 59°27' E 024°46'0 0.1
2018-Sep-11 09:59N 59°27' E 024°46'0 0.0
2018-Sep-11 09:29N 59°27' E 024°46'0 0.0
2018-Sep-11 09:02N 59°27' E 024°46'0 0.0
2018-Sep-11 08:59N 59°27' E 024°46'0 0.0
2018-Sep-11 08:29N 59°27' E 024°46'0 0.0
2018-Sep-11 08:02N 59°27' E 024°46'0 0.0
2018-Sep-11 07:59N 59°27' E 024°46'0 0.0
2018-Sep-11 07:29N 59°27' E 024°46'0 0.0
2018-Sep-11 07:02N 59°27' E 024°46'0 0.0
2018-Sep-11 07:00N 59°27' E 024°46'0 0.0
2018-Sep-11 06:29N 59°27' E 024°46'0 0.0
2018-Sep-11 06:02N 59°27' E 024°46'0 0.0
2018-Sep-11 06:00N 59°27' E 024°46'0 0.0
2018-Sep-11 05:30N 59°27' E 024°46'0 1.0
2018-Sep-11 05:03N 59°27' E 024°46'0 5.7
2018-Sep-11 05:00N 59°28' E 024°46'4 7.4
2018-Sep-11 04:30N 59°31' E 024°44'4 8.7
2018-Sep-11 04:03N 59°35' E 024°41'0 9.6
2018-Sep-11 04:01N 59°35' E 024°40'510.9
2018-Sep-11 03:30N 59°41' E 024°39'614.1
2018-Sep-11 03:03N 59°46' E 024°46'117.2
2018-Sep-11 03:00N 59°47' E 024°47'815.6
2018-Sep-11 02:30N 59°50' E 025°01'715.6
2018-Sep-11 02:03N 59°52' E 025°15'115.3
2018-Sep-11 02:00N 59°52' E 025°16'1015.6
2018-Sep-11 01:21N 59°54' E 025°36'515.7
2018-Sep-11 01:02N 59°55' E 025°45'115.6
2018-Sep-11 01:00N 59°56' E 025°46'1519.2
2018-Sep-11 00:13N 59°59' E 026°16'2 6.7
2018-Sep-10 23:56N 59°59' E 026°20'716.0
2018-Sep-10 23:29N 60°01' E 026°34'815.8
2018-Sep-10 22:57N 60°00' E 026°50'918.3
2018-Sep-10 22:29N 60°01' E 027°08'816.2
2018-Sep-10 21:58N 60°05' E 027°22'917.0
2018-Sep-10 21:26N 60°10' E 027°38'715.7
2018-Sep-10 21:01N 60°12' E 027°50'215.9
2018-Sep-10 20:55N 60°11' E 027°53'612.6
2018-Sep-10 20:29N 60°10' E 028°04'716.2
2018-Sep-10 20:03N 60°08' E 028°17'116.2
2018-Sep-10 20:00N 60°07' E 028°19'816.1
2018-Sep-10 19:29N 60°03' E 028°33'716.4
2018-Sep-10 19:03N 60°03' E 028°47'116.6
2018-Sep-10 18:58N 60°03' E 028°50'1119.4
2018-Sep-10 18:24N 60°02' E 029°12'2411.5
2018-Sep-10 16:21N 59°56' E 029°57'310.3
2018-Sep-10 16:03N 59°56' E 030°04'110.9
2018-Sep-10 16:00N 59°56' E 030°05'4 6.6
2018-Sep-10 15:28N 59°57' E 030°11'0 0.1
2018-Sep-10 15:01N 59°57' E 030°12'0 0.0
2018-Sep-10 14:58N 59°57' E 030°12'0 0.0
2018-Sep-10 14:28N 59°57' E 030°12'0 0.0
2018-Sep-10 13:58N 59°57' E 030°12'0 0.0
2018-Sep-10 13:28N 59°57' E 030°12'0 0.0
2018-Sep-10 13:01N 59°57' E 030°12'0 0.1
2018-Sep-10 12:58N 59°57' E 030°12'0 0.0
2018-Sep-10 12:28N 59°57' E 030°12'0 0.0
2018-Sep-10 12:01N 59°57' E 030°12'0 0.0
2018-Sep-10 11:58N 59°57' E 030°12'0 0.0
2018-Sep-10 11:28N 59°57' E 030°12'0 0.0
2018-Sep-10 11:01N 59°57' E 030°12'0 0.1
2018-Sep-10 10:58N 59°57' E 030°12'0 0.0
2018-Sep-10 10:28N 59°57' E 030°12'0 0.0
2018-Sep-10 10:01N 59°57' E 030°12'0 0.1
2018-Sep-10 09:58N 59°57' E 030°12'0 0.0
2018-Sep-10 09:28N 59°57' E 030°12'0 0.0
2018-Sep-10 09:01N 59°57' E 030°12'0 0.0
2018-Sep-10 08:58N 59°57' E 030°12'0 0.0
2018-Sep-10 08:28N 59°57' E 030°12'0 0.0
2018-Sep-10 08:01N 59°57' E 030°12'0 0.1
2018-Sep-10 07:58N 59°57' E 030°12'0 0.0
2018-Sep-10 07:28N 59°57' E 030°12'0 0.0
2018-Sep-10 07:01N 59°57' E 030°12'0 0.1
2018-Sep-10 06:58N 59°57' E 030°12'0 0.0
2018-Sep-10 06:28N 59°57' E 030°12'0 0.0
2018-Sep-10 06:01N 59°57' E 030°12'0 0.0
2018-Sep-10 05:58N 59°57' E 030°12'0 0.0
2018-Sep-10 05:28N 59°57' E 030°12'0 0.0
2018-Sep-10 05:01N 59°57' E 030°12'0 0.1
2018-Sep-10 04:58N 59°57' E 030°12'0 0.0
2018-Sep-10 04:28N 59°57' E 030°12'0 0.0
2018-Sep-10 04:01N 59°57' E 030°12'0 0.0
2018-Sep-10 03:58N 59°57' E 030°12'0 0.0
2018-Sep-10 03:28N 59°57' E 030°12'0 0.0
2018-Sep-10 03:01N 59°57' E 030°12'0 0.0
2018-Sep-10 02:58N 59°57' E 030°12'0 0.0
2018-Sep-10 02:28N 59°57' E 030°12'0 0.0
2018-Sep-10 01:58N 59°57' E 030°12'0 0.0
2018-Sep-10 01:28N 59°57' E 030°12'0 0.0
2018-Sep-10 01:01N 59°57' E 030°12'0 0.0
2018-Sep-10 00:58N 59°57' E 030°12'0 0.0
2018-Sep-10 00:29N 59°57' E 030°12'0 0.0
2018-Sep-09 23:58N 59°57' E 030°12'0 0.0
2018-Sep-09 23:28N 59°57' E 030°12'0 0.0
2018-Sep-09 22:55N 59°57' E 030°12'0 0.0
2018-Sep-09 22:28N 59°57' E 030°12'0 0.0
2018-Sep-09 22:01N 59°57' E 030°12'0 0.0
2018-Sep-09 21:58N 59°57' E 030°12'0 0.0
2018-Sep-09 21:28N 59°57' E 030°12'0 0.0
2018-Sep-09 21:02N 59°57' E 030°12'0 0.0
2018-Sep-09 20:59N 59°57' E 030°12'0 0.0
2018-Sep-09 20:28N 59°57' E 030°12'0 0.0
2018-Sep-09 20:02N 59°57' E 030°12'0 0.1
2018-Sep-09 19:59N 59°57' E 030°12'0 0.0
2018-Sep-09 19:25N 59°57' E 030°12'0 0.0
2018-Sep-09 18:58N 59°57' E 030°12'0 0.0
2018-Sep-09 18:28N 59°57' E 030°12'0 0.0
2018-Sep-09 18:01N 59°57' E 030°12'0 0.1
2018-Sep-09 17:58N 59°57' E 030°12'0 0.0
2018-Sep-09 17:28N 59°57' E 030°12'0 0.0
2018-Sep-09 16:58N 59°57' E 030°12'0 0.0
2018-Sep-09 16:28N 59°57' E 030°12'0 0.0
2018-Sep-09 15:55N 59°57' E 030°12'0 0.0
2018-Sep-09 15:28N 59°57' E 030°12'0 0.0
2018-Sep-09 15:01N 59°57' E 030°12'0 0.0
2018-Sep-09 14:55N 59°57' E 030°12'0 0.0
2018-Sep-09 14:22N 59°57' E 030°12'0 0.0
2018-Sep-09 13:58N 59°57' E 030°12'0 0.0
2018-Sep-09 13:28N 59°57' E 030°12'0 0.0
2018-Sep-09 13:01N 59°57' E 030°12'0 0.1
2018-Sep-09 12:58N 59°57' E 030°12'0 0.0
2018-Sep-09 12:28N 59°57' E 030°12'0 0.0
2018-Sep-09 12:01N 59°57' E 030°12'0 0.1
2018-Sep-09 11:58N 59°57' E 030°12'0 0.0
2018-Sep-09 11:28N 59°57' E 030°12'0 0.0
2018-Sep-09 11:01N 59°57' E 030°12'0 0.1
2018-Sep-09 10:58N 59°57' E 030°12'0 0.0
2018-Sep-09 10:28N 59°57' E 030°12'0 0.0
2018-Sep-09 10:01N 59°57' E 030°12'0 0.0
2018-Sep-09 09:55N 59°57' E 030°12'0 0.0
2018-Sep-09 09:28N 59°57' E 030°12'0 0.0
2018-Sep-09 09:01N 59°57' E 030°12'0 0.0
2018-Sep-09 08:58N 59°57' E 030°12'0 0.0
2018-Sep-09 08:28N 59°57' E 030°12'0 0.0
2018-Sep-09 08:01N 59°57' E 030°12'0 0.1
2018-Sep-09 07:58N 59°57' E 030°12'0 0.0
2018-Sep-09 07:25N 59°57' E 030°12'0 0.0
2018-Sep-09 07:01N 59°57' E 030°12'0 0.0
2018-Sep-09 06:58N 59°57' E 030°12'0 0.0
2018-Sep-09 06:28N 59°57' E 030°12'0 0.0
2018-Sep-09 06:01N 59°57' E 030°12'0 0.1
2018-Sep-09 05:58N 59°57' E 030°12'0 0.0
2018-Sep-09 05:28N 59°57' E 030°12'0 0.0
2018-Sep-09 05:03N 59°57' E 030°12'0 0.0
2018-Sep-09 05:00N 59°57' E 030°12'0 1.0
2018-Sep-09 04:30N 59°57' E 030°11'3 7.4
2018-Sep-09 04:03N 59°56' E 030°04'1 9.7
2018-Sep-09 04:00N 59°56' E 030°03'5 9.4
2018-Sep-09 03:29N 59°57' E 029°54'4 9.7
2018-Sep-09 03:03N 59°59' E 029°46'0 9.0
2018-Sep-09 03:00N 59°59' E 029°46'  
Track history (hours):
 
Tides and Currents Weather Stations Pressure Air Temp Water Temp Dewpoint Dewpoint Depression Visibility Wind Speed Wind Dir Waves Ship Positions

Albatros

Last reported at 2018-Sep-19 02:59 UTC. Time now 2018-Sep-19 03:01 UTC.
Position N 60°12' E 005°11'.

Length 205.5 m; beam 25.2 m; draft 7.6 m.

Type: Passenger vessel. MMSI: 308784000.

Date/timePositionNaut miles runAvg speedWind from/ knotsBaromVisibWave heightAir tempDewpointWater temp
2018-Sep-19 02:59N 60°12' E 005°11'5 9.6
2018-Sep-19 02:30N 60°09' E 005°04'4 8.9
2018-Sep-19 02:03N 60°08' E 004°56'111.6
2018-Sep-19 01:59N 60°07' E 004°56'611.4
2018-Sep-19 01:29N 60°02' E 004°49'511.5
2018-Sep-19 01:02N 59°58' E 004°43'012.0
2018-Sep-19 01:00N 59°58' E 004°43'612.8
2018-Sep-19 00:30N 59°53' E 004°35'511.2
2018-Sep-19 00:03N 59°48' E 004°36'110.2
2018-Sep-19 00:00N 59°47' E 004°37'510.1
2018-Sep-18 23:30N 59°42' E 004°38'510.8
2018-Sep-18 23:03N 59°38' E 004°42'111.9
2018-Sep-18 23:00N 59°37' E 004°43'612.0
2018-Sep-18 22:30N 59°34' E 004°53'512.5
2018-Sep-18 22:03N 59°31' E 005°01'112.2
2018-Sep-18 22:00N 59°30' E 005°03'612.0
2018-Sep-18 21:30N 59°26' E 005°12'3 5.8
2018-Sep-18 21:03N 59°25' E 005°16'0 0.2
2018-Sep-18 21:00N 59°25' E 005°16'0 0.0
2018-Sep-18 20:30N 59°25' E 005°16'0 0.0
2018-Sep-18 20:03N 59°25' E 005°16'0 0.0
2018-Sep-18 20:00N 59°25' E 005°16'0 0.0
2018-Sep-18 19:30N 59°25' E 005°16'0 0.0
2018-Sep-18 19:03N 59°25' E 005°16'0 0.0
2018-Sep-18 19:00N 59°25' E 005°16'0 0.0
2018-Sep-18 18:30N 59°25' E 005°16'0 0.0
2018-Sep-18 18:03N 59°25' E 005°16'0 0.0
2018-Sep-18 18:00N 59°25' E 005°16'0 0.0
2018-Sep-18 17:30N 59°25' E 005°16'0 0.0
2018-Sep-18 17:03N 59°25' E 005°16'0 0.0
2018-Sep-18 17:00N 59°25' E 005°16'0 0.0
2018-Sep-18 16:30N 59°25' E 005°16'0 0.0
2018-Sep-18 16:03N 59°25' E 005°16'0 0.0
2018-Sep-18 16:00N 59°25' E 005°16'0 0.0
2018-Sep-18 15:30N 59°25' E 005°16'0 0.0
2018-Sep-18 15:03N 59°25' E 005°16'0 0.0
2018-Sep-18 15:00N 59°25' E 005°16'0 0.0
2018-Sep-18 14:03N 59°25' E 005°16'0 0.0
2018-Sep-18 14:00N 59°25' E 005°16'0 0.0
2018-Sep-18 13:30N 59°25' E 005°16'0 0.2
2018-Sep-18 13:03N 59°25' E 005°15'0 0.3
2018-Sep-18 12:59N 59°25' E 005°15'2 4.7
2018-Sep-18 12:30N 59°23' E 005°18'511.0
2018-Sep-18 12:03N 59°18' E 005°20'115.0
2018-Sep-18 12:00N 59°17' E 005°20'816.3
2018-Sep-18 11:30N 59°09' E 005°21'818.1
2018-Sep-18 11:03N 59°04' E 005°34'119.8
2018-Sep-18 11:01N 59°03' E 005°35'713.1
2018-Sep-18 10:30N 58°58' E 005°44'0 0.2
2018-Sep-18 10:03N 58°58' E 005°44'0 0.0
2018-Sep-18 10:00N 58°58' E 005°44'0 0.0
2018-Sep-18 09:27N 58°58' E 005°44'0 0.0
2018-Sep-18 09:03N 58°58' E 005°44'0 0.0
2018-Sep-18 09:00N 58°58' E 005°44'0 0.0
2018-Sep-18 08:30N 58°58' E 005°44'0 0.0
2018-Sep-18 08:03N 58°58' E 005°44'0 0.0
2018-Sep-18 08:00N 58°58' E 005°44'0 0.0
2018-Sep-18 07:30N 58°58' E 005°44'0 0.0
2018-Sep-18 07:03N 58°58' E 005°44'0 0.1
2018-Sep-18 07:00N 58°58' E 005°44'0 0.0
2018-Sep-18 06:30N 58°58' E 005°44'0 0.0
2018-Sep-18 06:03N 58°58' E 005°44'0 0.0
2018-Sep-18 06:00N 58°58' E 005°44'0 0.0
2018-Sep-18 05:30N 58°58' E 005°44'0 0.0
2018-Sep-18 05:03N 58°58' E 005°44'0 0.1
2018-Sep-18 05:00N 58°58' E 005°44'1 2.5
2018-Sep-18 04:30N 58°59' E 005°42'512.1
2018-Sep-18 04:04N 59°03' E 005°34'111.5
2018-Sep-18 04:00N 59°03' E 005°33'816.1
2018-Sep-18 03:30N 58°55' E 005°32'511.7
2018-Sep-18 03:03N 58°50' E 005°28'110.2
2018-Sep-18 03:00N 58°50' E 005°26'4 7.3
2018-Sep-18 02:30N 58°49' E 005°20'3 7.6
2018-Sep-18 02:03N 58°45' E 005°19'0 9.6
2018-Sep-18 02:00N 58°45' E 005°19'5 9.7
2018-Sep-18 01:30N 58°40' E 005°23'510.7
2018-Sep-18 01:03N 58°36' E 005°26'110.7
2018-Sep-18 01:00N 58°35' E 005°26'510.8
2018-Sep-18 00:30N 58°30' E 005°31'510.9
2018-Sep-18 00:03N 58°27' E 005°38'110.9
2018-Sep-18 00:00N 58°27' E 005°39'510.7
2018-Sep-17 23:30N 58°23' E 005°46'511.1
2018-Sep-17 23:03N 58°20' E 005°53'111.8
2018-Sep-17 23:00N 58°19' E 005°54'510.6
2018-Sep-17 22:30N 58°16' E 006°01'510.6
2018-Sep-17 22:03N 58°12' E 006°08'010.7
2018-Sep-17 22:00N 58°12' E 006°09'610.8
2018-Sep-17 21:29N 58°08' E 006°16'511.5
2018-Sep-17 21:03N 58°05' E 006°23'111.5
2018-Sep-17 21:00N 58°04' E 006°24'611.2
2018-Sep-17 20:30N 58°01' E 006°32'510.9
2018-Sep-17 20:03N 57°60' E 006°41'111.2
2018-Sep-17 20:00N 57°60' E 006°42'611.0
2018-Sep-17 19:30N 58°00' E 006°53'510.3
2018-Sep-17 19:02N 58°04' E 006°59'010.9
2018-Sep-17 19:00N 58°04' E 006°60'3 4.4
2018-Sep-17 18:26N 58°06' E 007°02'0 0.0
2018-Sep-17 18:02N 58°06' E 007°02'0 0.0
2018-Sep-17 17:59N 58°06' E 007°02'0 0.0
2018-Sep-17 17:29N 58°06' E 007°02'0 0.0
2018-Sep-17 16:59N 58°06' E 007°02'0 0.0
2018-Sep-17 16:29N 58°06' E 007°02'0 0.0
2018-Sep-17 16:02N 58°06' E 007°02'0 0.0
2018-Sep-17 15:47N 58°06' E 007°02'0 0.1
2018-Sep-17 15:29N 58°06' E 007°02'0 0.0
2018-Sep-17 15:02N 58°06' E 007°02'0 0.1
2018-Sep-17 14:56N 58°06' E 007°02'0 0.1
2018-Sep-17 14:26N 58°06' E 007°02'0 0.1
2018-Sep-17 13:59N 58°06' E 007°02'0 0.1
2018-Sep-17 13:29N 58°06' E 007°02'0 0.1
2018-Sep-17 13:02N 58°06' E 007°02'0 0.1
2018-Sep-17 12:56N 58°06' E 007°02'0 0.1
2018-Sep-17 12:29N 58°06' E 007°02'0 0.0
2018-Sep-17 12:02N 58°06' E 007°02'0 0.2
2018-Sep-17 11:59N 58°06' E 007°02'0 0.2
2018-Sep-17 11:30N 58°06' E 007°02'3 6.8
2018-Sep-17 11:03N 58°04' E 006°59'114.1
2018-Sep-17 11:00N 58°03' E 006°58'510.2
2018-Sep-17 10:30N 58°01' E 006°50'716.3
2018-Sep-17 10:03N 57°53' E 006°50'117.9
2018-Sep-17 10:00N 57°53' E 006°50'918.2
2018-Sep-17 09:30N 57°43' E 006°49'715.6
2018-Sep-17 09:02N 57°37' E 006°42'115.1
2018-Sep-17 09:00N 57°37' E 006°41'714.1
2018-Sep-17 08:30N 57°31' E 006°34'818.4
2018-Sep-17 08:03N 57°23' E 006°33'118.3
2018-Sep-17 08:00N 57°22' E 006°33'918.2
2018-Sep-17 07:29N 57°13' E 006°34'818.5
2018-Sep-17 07:03N 57°05' E 006°37'118.7
2018-Sep-17 07:00N 57°04' E 006°38'816.3
2018-Sep-17 06:30N 56°56' E 006°40'716.3
2018-Sep-17 06:02N 56°48' E 006°40'216.3
2018-Sep-17 05:56N 56°47' E 006°40'716.2
2018-Sep-17 05:29N 56°39' E 006°39'916.1
2018-Sep-17 04:55N 56°30' E 006°37'15014.9
2018-Sep-16 18:50N 54°07' E 007°54'618.6
2018-Sep-16 18:30N 54°01' E 007°53'1016.0
2018-Sep-16 17:55N 53°52' E 007°57'718.2
2018-Sep-16 17:31N 53°48' E 008°08'919.0
2018-Sep-16 17:03N 53°42' E 008°19'118.7
2018-Sep-16 16:59N 53°42' E 008°21'817.3
2018-Sep-16 16:30N 53°36' E 008°31'3 5.8
2018-Sep-16 16:03N 53°34' E 008°33'0 0.0
2018-Sep-16 15:57N 53°34' E 008°33'0 0.0
2018-Sep-16 15:27N 53°34' E 008°33'0 0.0
2018-Sep-16 15:03N 53°34' E 008°33'0 0.0
2018-Sep-16 14:57N 53°34' E 008°33'0 0.0
2018-Sep-16 14:27N 53°34' E 008°33'0 0.0
2018-Sep-16 13:27N 53°34' E 008°33'0 0.0
2018-Sep-16 13:03N 53°34' E 008°33'0 0.0
2018-Sep-16 12:57N 53°34' E 008°33'0 0.0
2018-Sep-16 12:27N 53°34' E 008°33'0 0.0
2018-Sep-16 12:03N 53°34' E 008°33'0 0.0
2018-Sep-16 11:57N 53°34' E 008°33'0 0.0
2018-Sep-16 11:27N 53°34' E 008°33'0 0.0
2018-Sep-16 11:03N 53°34' E 008°33'0 0.0
2018-Sep-16 10:57N 53°34' E 008°33'0 0.0
2018-Sep-16 10:27N 53°34' E 008°33'0 0.0
2018-Sep-16 10:03N 53°34' E 008°33'0 0.0
2018-Sep-16 09:57N 53°34' E 008°33'0 0.0
2018-Sep-16 09:27N 53°34' E 008°33'0 0.0
2018-Sep-16 09:03N 53°34' E 008°33'0 0.0
2018-Sep-16 08:57N 53°34' E 008°33'0 0.0
2018-Sep-16 08:27N 53°34' E 008°33'0 0.0
2018-Sep-16 08:03N 53°34' E 008°33'0 0.0
2018-Sep-16 07:57N 53°34' E 008°33'0 0.0
2018-Sep-16 07:27N 53°34' E 008°33'0 0.0
2018-Sep-16 07:03N 53°34' E 008°33'0 0.0
2018-Sep-16 06:57N 53°34' E 008°33'0 0.0
2018-Sep-16 06:27N 53°34' E 008°33'0 0.0
2018-Sep-16 06:03N 53°34' E 008°33'0 0.0
2018-Sep-16 05:57N 53°34' E 008°33'0 0.6
2018-Sep-16 05:31N 53°33' E 008°33'4 8.4
2018-Sep-16 05:03N 53°37' E 008°30'112.0
2018-Sep-16 05:00N 53°37' E 008°29'815.9
2018-Sep-16 04:30N 53°42' E 008°19'716.3
2018-Sep-16 04:03N 53°47' E 008°09'116.4
2018-Sep-16 04:00N 53°48' E 008°09'816.1
2018-Sep-16 03:30N 53°51' E 007°57'614.4
2018-Sep-16 03:03N 53°58' E 007°56'116.1
2018-Sep-16 03:00N 53°59' E 007°56'1015.6
2018-Sep-16 02:22N 54°01' E 008°13'413.4
2018-Sep-16 02:03N 54°00' E 008°20'115.1
2018-Sep-16 02:00N 54°00' E 008°21'713.1
2018-Sep-16 01:30N 53°58' E 008°32'511.9
2018-Sep-16 01:04N 53°56' E 008°40'1 9.9
2018-Sep-16 01:00N 53°55' E 008°40'611.5
2018-Sep-16 00:30N 53°51' E 008°46'614.1
2018-Sep-16 00:03N 53°51' E 008°57'115.4
2018-Sep-16 00:00N 53°51' E 008°58'713.3
2018-Sep-15 23:31N 53°54' E 009°08'0 0.3
2018-Sep-15 23:03N 53°54' E 009°09'0 2.5
2018-Sep-15 23:00N 53°54' E 009°09'3 5.8
2018-Sep-15 22:30N 53°56' E 009°12'4 8.3
2018-Sep-15 22:03N 53°59' E 009°16'0 8.4
2018-Sep-15 22:00N 53°59' E 009°17'4 8.4
2018-Sep-15 21:30N 54°03' E 009°18'4 8.5
2018-Sep-15 21:03N 54°07' E 009°20'0 8.4
2018-Sep-15 21:00N 54°07' E 009°20'2 4.2
2018-Sep-15 20:30N 54°09' E 009°22'2 4.3
2018-Sep-15 20:03N 54°10' E 009°25'0 8.4
2018-Sep-15 20:00N 54°10' E 009°25'4 8.4
2018-Sep-15 19:30N 54°12' E 009°32'2 4.5
2018-Sep-15 19:03N 54°13' E 009°35'0 7.9
2018-Sep-15 19:00N 54°13' E 009°35'4 7.1
2018-Sep-15 18:30N 54°16' E 009°38'3 7.8
2018-Sep-15 18:03N 54°18' E 009°43'0 6.9
2018-Sep-15 18:00N 54°19' E 009°43'4 8.1
2018-Sep-15 17:30N 54°22' E 009°47'5 8.0
2018-Sep-15 16:55N 54°21' E 009°55'3 7.3
2018-Sep-15 16:29N 54°21' E 010°00'8 1.7
2018-Sep-15 12:00N 54°29' E 009°55'2 0.3
2018-Sep-15 04:55N 54°28' E 009°52'1714.6
2018-Sep-15 03:46N 54°35' E 010°19'415.8
2018-Sep-15 03:29N 54°35' E 010°27'715.5
2018-Sep-15 03:04N 54°35' E 010°38'115.2
2018-Sep-15 03:01N 54°35' E 010°39'815.5
2018-Sep-15 02:31N 54°36' E 010°53'715.4
2018-Sep-15 02:04N 54°36' E 011°05'115.5
2018-Sep-15 02:01N 54°36' E 011°06'815.2
2018-Sep-15 01:30N 54°34' E 011°19'715.8
2018-Sep-15 01:04N 54°31' E 011°30'115.6
2018-Sep-15 01:01N 54°31' E 011°31'815.7
2018-Sep-15 00:30N 54°28' E 011°43'6915.1
2018-Sep-14 19:57N 54°46' E 013°37'817.0
2018-Sep-14 19:30N 54°45' E 013°50'817.0
2018-Sep-14 19:03N 54°42' E 014°03'117.3
2018-Sep-14 19:00N 54°42' E 014°04'917.5
2018-Sep-14 18:29N 54°39' E 014°19'128 6.2
2018-Sep-13 21:48N 54°57' E 017°59'414.2
2018-Sep-13 21:31N 54°57' E 018°06'614.2
2018-Sep-13 21:04N 54°58' E 018°17'114.1
2018-Sep-13 21:01N 54°58' E 018°19'714.4
2018-Sep-13 20:31N 54°59' E 018°31'714.4
2018-Sep-13 20:03N 54°56' E 018°41'114.9
2018-Sep-13 20:01N 54°55' E 018°42'815.1
2018-Sep-13 19:31N 54°50' E 018°52'714.6
2018-Sep-13 19:04N 54°45' E 018°60'114.6
2018-Sep-13 19:01N 54°45' E 019°00'714.7
2018-Sep-13 18:31N 54°38' E 018°56'614.2
2018-Sep-13 18:04N 54°32' E 018°49'114.1
2018-Sep-13 18:01N 54°32' E 018°49'713.9
2018-Sep-13 17:31N 54°27' E 018°40'3 5.7
2018-Sep-13 17:03N 54°24' E 018°40'0 3.6
2018-Sep-13 17:01N 54°24' E 018°41'1 3.0
2018-Sep-13 16:31N 54°23' E 018°39'1 3.3
2018-Sep-13 16:03N 54°24' E 018°40'0 0.8
2018-Sep-13 16:00N 54°24' E 018°40'0 0.0
2018-Sep-13 15:27N 54°24' E 018°40'0 0.0
2018-Sep-13 15:03N 54°24' E 018°40'0 0.0
2018-Sep-13 15:00N 54°24' E 018°40'0 0.0
2018-Sep-13 14:03N 54°24' E 018°40'0 0.0
2018-Sep-13 14:00N 54°24' E 018°40'0 0.0
2018-Sep-13 13:30N 54°24' E 018°40'0 0.0
2018-Sep-13 13:03N 54°24' E 018°40'0 0.0
2018-Sep-13 13:00N 54°24' E 018°40'0 0.0
2018-Sep-13 12:30N 54°24' E 018°40'0 0.0
2018-Sep-13 12:03N 54°24' E 018°40'0 0.0
2018-Sep-13 12:00N 54°24' E 018°40'0 0.0
2018-Sep-13 11:27N 54°24' E 018°40'0 0.0
2018-Sep-13 11:03N 54°24' E 018°40'0 0.0
2018-Sep-13 11:00N 54°24' E 018°40'0 0.0
2018-Sep-13 10:30N 54°24' E 018°40'0 0.0
2018-Sep-13 10:03N 54°24' E 018°40'0 0.0
2018-Sep-13 10:00N 54°24' E 018°40'0 0.0
2018-Sep-13 09:30N 54°24' E 018°40'0 0.0
2018-Sep-13 09:03N 54°24' E 018°40'0 0.0
2018-Sep-13 09:00N 54°24' E 018°40'0 0.0
2018-Sep-13 08:30N 54°24' E 018°40'0 0.0
2018-Sep-13 08:03N 54°24' E 018°40'0 0.0
2018-Sep-13 07:57N 54°24' E 018°40'0 0.0
2018-Sep-13 07:30N 54°24' E 018°40'0 0.0
2018-Sep-13 07:03N 54°24' E 018°40'0 0.0
2018-Sep-13 07:00N 54°24' E 018°40'0 0.0
2018-Sep-13 06:30N 54°24' E 018°40'0 0.0
2018-Sep-13 06:03N 54°24' E 018°40'0 0.0
2018-Sep-13 06:00N 54°24' E 018°40'0 0.4
2018-Sep-13 05:30N 54°24' E 018°40'3 7.0
2018-Sep-13 05:03N 54°27' E 018°41'111.1
2018-Sep-13 05:00N 54°28' E 018°42'510.8
2018-Sep-13 04:30N 54°32' E 018°47'510.5
2018-Sep-13 04:03N 54°36' E 018°53'0 9.8
2018-Sep-13 04:00N 54°36' E 018°53'5 9.5
2018-Sep-13 03:30N 54°40' E 018°57'410.0
2018-Sep-13 03:03N 54°44' E 019°00'0 9.4
2018-Sep-13 03:00N 54°45' E 019°01'5 9.6
2018-Sep-13 02:30N 54°49' E 019°05'4 8.9
2018-Sep-13 02:03N 54°52' E 019°08'0 9.1
2018-Sep-13 02:00N 54°53' E 019°09'510.2
2018-Sep-13 01:30N 54°57' E 019°13'510.2
2018-Sep-13 01:03N 55°01' E 019°17'110.1
2018-Sep-13 01:00N 55°02' E 019°17'296 8.8
2018-Sep-11 15:11N 59°33' E 022°56'317.0
2018-Sep-11 15:01N 59°34' E 023°02'1816.3
2018-Sep-11 13:53N 59°31' E 023°37'2217.4
2018-Sep-11 12:36N 59°30' E 024°22'217.3
2018-Sep-11 12:30N 59°30' E 024°25'715.1
2018-Sep-11 12:03N 59°31' E 024°38'112.8
2018-Sep-11 12:01N 59°31' E 024°39'510.8
2018-Sep-11 11:30N 59°27' E 024°46'0 0.3
2018-Sep-11 11:02N 59°27' E 024°46'0 0.0
2018-Sep-11 10:59N 59°27' E 024°46'0 0.0
2018-Sep-11 10:30N 59°27' E 024°46'0 0.0
2018-Sep-11 10:02N 59°27' E 024°46'0 0.1
2018-Sep-11 09:59N 59°27' E 024°46'0 0.0
2018-Sep-11 09:29N 59°27' E 024°46'0 0.0
2018-Sep-11 09:02N 59°27' E 024°46'0 0.0
2018-Sep-11 08:59N 59°27' E 024°46'0 0.0
2018-Sep-11 08:29N 59°27' E 024°46'0 0.0
2018-Sep-11 08:02N 59°27' E 024°46'0 0.0
2018-Sep-11 07:59N 59°27' E 024°46'0 0.0
2018-Sep-11 07:29N 59°27' E 024°46'0 0.0
2018-Sep-11 07:02N 59°27' E 024°46'0 0.0
2018-Sep-11 07:00N 59°27' E 024°46'0 0.0
2018-Sep-11 06:29N 59°27' E 024°46'0 0.0
2018-Sep-11 06:02N 59°27' E 024°46'0 0.0
2018-Sep-11 06:00N 59°27' E 024°46'0 0.0
2018-Sep-11 05:30N 59°27' E 024°46'0 1.0
2018-Sep-11 05:03N 59°27' E 024°46'0 5.7
2018-Sep-11 05:00N 59°28' E 024°46'4 7.4
2018-Sep-11 04:30N 59°31' E 024°44'4 8.7
2018-Sep-11 04:03N 59°35' E 024°41'0 9.6
2018-Sep-11 04:01N 59°35' E 024°40'510.9
2018-Sep-11 03:30N 59°41' E 024°39'614.1
2018-Sep-11 03:03N 59°46' E 024°46'117.2
2018-Sep-11 03:00N 59°47' E 024°47'815.6
2018-Sep-11 02:30N 59°50' E 025°01'715.6
2018-Sep-11 02:03N 59°52' E 025°15'115.3
2018-Sep-11 02:00N 59°52' E 025°16'1015.6
2018-Sep-11 01:21N 59°54' E 025°36'515.7
2018-Sep-11 01:02N 59°55' E 025°45'115.6
2018-Sep-11 01:00N 59°56' E 025°46'1519.2
2018-Sep-11 00:13N 59°59' E 026°16'2 6.7
2018-Sep-10 23:56N 59°59' E 026°20'716.0
2018-Sep-10 23:29N 60°01' E 026°34'815.8
2018-Sep-10 22:57N 60°00' E 026°50'918.3
2018-Sep-10 22:29N 60°01' E 027°08'816.2
2018-Sep-10 21:58N 60°05' E 027°22'917.0
2018-Sep-10 21:26N 60°10' E 027°38'715.7
2018-Sep-10 21:01N 60°12' E 027°50'215.9
2018-Sep-10 20:55N 60°11' E 027°53'612.6
2018-Sep-10 20:29N 60°10' E 028°04'716.2
2018-Sep-10 20:03N 60°08' E 028°17'116.2
2018-Sep-10 20:00N 60°07' E 028°19'816.1
2018-Sep-10 19:29N 60°03' E 028°33'716.4
2018-Sep-10 19:03N 60°03' E 028°47'116.6
2018-Sep-10 18:58N 60°03' E 028°50'1119.4
2018-Sep-10 18:24N 60°02' E 029°12'2411.5
2018-Sep-10 16:21N 59°56' E 029°57'310.3
2018-Sep-10 16:03N 59°56' E 030°04'110.9
2018-Sep-10 16:00N 59°56' E 030°05'4 6.6
2018-Sep-10 15:28N 59°57' E 030°11'0 0.1
2018-Sep-10 15:01N 59°57' E 030°12'0 0.0
2018-Sep-10 14:58N 59°57' E 030°12'0 0.0
2018-Sep-10 14:28N 59°57' E 030°12'0 0.0
2018-Sep-10 13:58N 59°57' E 030°12'0 0.0
2018-Sep-10 13:28N 59°57' E 030°12'0 0.0
2018-Sep-10 13:01N 59°57' E 030°12'0 0.1
2018-Sep-10 12:58N 59°57' E 030°12'0 0.0
2018-Sep-10 12:28N 59°57' E 030°12'0 0.0
2018-Sep-10 12:01N 59°57' E 030°12'0 0.0
2018-Sep-10 11:58N 59°57' E 030°12'0 0.0
2018-Sep-10 11:28N 59°57' E 030°12'0 0.0
2018-Sep-10 11:01N 59°57' E 030°12'0 0.1
2018-Sep-10 10:58N 59°57' E 030°12'0 0.0
2018-Sep-10 10:28N 59°57' E 030°12'0 0.0
2018-Sep-10 10:01N 59°57' E 030°12'0 0.1
2018-Sep-10 09:58N 59°57' E 030°12'0 0.0
2018-Sep-10 09:28N 59°57' E 030°12'0 0.0
2018-Sep-10 09:01N 59°57' E 030°12'0 0.0
2018-Sep-10 08:58N 59°57' E 030°12'0 0.0
2018-Sep-10 08:28N 59°57' E 030°12'0 0.0
2018-Sep-10 08:01N 59°57' E 030°12'0 0.1
2018-Sep-10 07:58N 59°57' E 030°12'0 0.0
2018-Sep-10 07:28N 59°57' E 030°12'0 0.0
2018-Sep-10 07:01N 59°57' E 030°12'0 0.1
2018-Sep-10 06:58N 59°57' E 030°12'0 0.0
2018-Sep-10 06:28N 59°57' E 030°12'0 0.0
2018-Sep-10 06:01N 59°57' E 030°12'0 0.0
2018-Sep-10 05:58N 59°57' E 030°12'0 0.0
2018-Sep-10 05:28N 59°57' E 030°12'0 0.0
2018-Sep-10 05:01N 59°57' E 030°12'0 0.1
2018-Sep-10 04:58N 59°57' E 030°12'0 0.0
2018-Sep-10 04:28N 59°57' E 030°12'0 0.0
2018-Sep-10 04:01N 59°57' E 030°12'0 0.0
2018-Sep-10 03:58N 59°57' E 030°12'0 0.0
2018-Sep-10 03:28N 59°57' E 030°12'0 0.0
2018-Sep-10 03:01N 59°57' E 030°12'0 0.0
2018-Sep-10 02:58N 59°57' E 030°12'0 0.0
2018-Sep-10 02:28N 59°57' E 030°12'0 0.0
2018-Sep-10 01:58N 59°57' E 030°12'0 0.0
2018-Sep-10 01:28N 59°57' E 030°12'0 0.0
2018-Sep-10 01:01N 59°57' E 030°12'0 0.0
2018-Sep-10 00:58N 59°57' E 030°12'0 0.0
2018-Sep-10 00:29N 59°57' E 030°12'0 0.0
2018-Sep-09 23:58N 59°57' E 030°12'0 0.0
2018-Sep-09 23:28N 59°57' E 030°12'0 0.0
2018-Sep-09 22:55N 59°57' E 030°12'0 0.0
2018-Sep-09 22:28N 59°57' E 030°12'0 0.0
2018-Sep-09 22:01N 59°57' E 030°12'0 0.0
2018-Sep-09 21:58N 59°57' E 030°12'0 0.0
2018-Sep-09 21:28N 59°57' E 030°12'0 0.0
2018-Sep-09 21:02N 59°57' E 030°12'0 0.0
2018-Sep-09 20:59N 59°57' E 030°12'0 0.0
2018-Sep-09 20:28N 59°57' E 030°12'0 0.0
2018-Sep-09 20:02N 59°57' E 030°12'0 0.1
2018-Sep-09 19:59N 59°57' E 030°12'0 0.0
2018-Sep-09 19:25N 59°57' E 030°12'0 0.0
2018-Sep-09 18:58N 59°57' E 030°12'0 0.0
2018-Sep-09 18:28N 59°57' E 030°12'0 0.0
2018-Sep-09 18:01N 59°57' E 030°12'0 0.1
2018-Sep-09 17:58N 59°57' E 030°12'0 0.0
2018-Sep-09 17:28N 59°57' E 030°12'0 0.0
2018-Sep-09 16:58N 59°57' E 030°12'0 0.0
2018-Sep-09 16:28N 59°57' E 030°12'0 0.0
2018-Sep-09 15:55N 59°57' E 030°12'0 0.0
2018-Sep-09 15:28N 59°57' E 030°12'0 0.0
2018-Sep-09 15:01N 59°57' E 030°12'0 0.0
2018-Sep-09 14:55N 59°57' E 030°12'0 0.0
2018-Sep-09 14:22N 59°57' E 030°12'0 0.0
2018-Sep-09 13:58N 59°57' E 030°12'0 0.0
2018-Sep-09 13:28N 59°57' E 030°12'0 0.0
2018-Sep-09 13:01N 59°57' E 030°12'0 0.1
2018-Sep-09 12:58N 59°57' E 030°12'0 0.0
2018-Sep-09 12:28N 59°57' E 030°12'0 0.0
2018-Sep-09 12:01N 59°57' E 030°12'0 0.1
2018-Sep-09 11:58N 59°57' E 030°12'0 0.0
2018-Sep-09 11:28N 59°57' E 030°12'0 0.0
2018-Sep-09 11:01N 59°57' E 030°12'0 0.1
2018-Sep-09 10:58N 59°57' E 030°12'0 0.0
2018-Sep-09 10:28N 59°57' E 030°12'0 0.0
2018-Sep-09 10:01N 59°57' E 030°12'0 0.0
2018-Sep-09 09:55N 59°57' E 030°12'0 0.0
2018-Sep-09 09:28N 59°57' E 030°12'0 0.0
2018-Sep-09 09:01N 59°57' E 030°12'0 0.0
2018-Sep-09 08:58N 59°57' E 030°12'0 0.0
2018-Sep-09 08:28N 59°57' E 030°12'0 0.0
2018-Sep-09 08:01N 59°57' E 030°12'0 0.1
2018-Sep-09 07:58N 59°57' E 030°12'0 0.0
2018-Sep-09 07:25N 59°57' E 030°12'0 0.0
2018-Sep-09 07:01N 59°57' E 030°12'0 0.0
2018-Sep-09 06:58N 59°57' E 030°12'0 0.0
2018-Sep-09 06:28N 59°57' E 030°12'0 0.0
2018-Sep-09 06:01N 59°57' E 030°12'0 0.1
2018-Sep-09 05:58N 59°57' E 030°12'0 0.0
2018-Sep-09 05:28N 59°57' E 030°12'0 0.0
2018-Sep-09 05:03N 59°57' E 030°12'0 0.0
2018-Sep-09 05:00N 59°57' E 030°12'0 1.0
2018-Sep-09 04:30N 59°57' E 030°11'3 7.4
2018-Sep-09 04:03N 59°56' E 030°04'1 9.7
2018-Sep-09 04:00N 59°56' E 030°03'5 9.4
2018-Sep-09 03:29N 59°57' E 029°54'4 9.7
2018-Sep-09 03:03N 59°59' E 029°46'0 9.0
2018-Sep-09 03:00N 59°59' E 029°46'  

Dump ship's entire track history